Time;durP1;ratioP1;P1;durP2;ratioP2;P2;SDS_P1;SDS_P2;PMS_P1;PMS_P2;Temp;Humidity;BMP_temperature;BMP_pressure;BME280_temperature;BME280_humidity;BME280_pressure;Samples;Min_cycle;Max_cycle;Signal;HPM_P1;HPM_P2
2023/10/31 00:01:12;;;;;;;14.20;5.47;;;;;;;10.01;100.00;99475.88;7369060;19;21249;-39
2023/10/31 00:03:45;;;;;;;9.73;5.40;;;;;;;10.03;100.00;99469.03;7394099;19;20419;-38
2023/10/31 00:06:14;;;;;;;14.70;6.20;;;;;;;10.02;100.00;99462.16;7369031;19;20996;-40
2023/10/31 00:08:44;;;;;;;16.80;7.70;;;;;;;10.03;100.00;99458.72;7393001;19;20404;-39
2023/10/31 00:11:14;;;;;;;21.27;6.43;;;;;;;10.08;100.00;99456.25;7365811;19;20466;-38
2023/10/31 00:13:44;;;;;;;12.07;5.97;;;;;;;10.09;100.00;99450.25;7392860;19;20411;-38
2023/10/31 00:16:14;;;;;;;9.10;5.27;;;;;;;10.02;100.00;99444.13;7369644;19;20427;-38
2023/10/31 00:18:46;;;;;;;8.67;5.17;;;;;;;10.02;100.00;99441.53;7394297;19;20404;-39
2023/10/31 00:21:16;;;;;;;8.83;5.47;;;;;;;10.02;100.00;99436.38;7367551;19;20474;-43
2023/10/31 00:23:49;;;;;;;7.90;4.70;;;;;;;9.90;100.00;99446.41;7388706;19;20403;-38
2023/10/31 00:26:18;;;;;;;14.93;5.23;;;;;;;9.95;100.00;99447.38;7369620;19;20502;-37
2023/10/31 00:28:48;;;;;;;10.00;5.67;;;;;;;9.98;100.00;99430.28;7392665;19;20419;-38
2023/10/31 00:31:18;;;;;;;9.00;5.40;;;;;;;10.00;100.00;99418.31;7369264;19;20479;-40
2023/10/31 00:33:50;;;;;;;10.00;4.90;;;;;;;10.04;100.00;99408.94;7392949;19;20407;-38
2023/10/31 00:36:20;;;;;;;8.73;5.33;;;;;;;10.04;100.00;99413.22;7368746;19;20422;-43
2023/10/31 00:38:49;;;;;;;9.90;4.77;;;;;;;10.04;100.00;99406.34;7392196;19;20499;-37
2023/10/31 00:41:19;;;;;;;8.53;5.10;;;;;;;10.03;100.00;99402.03;7367759;19;20897;-39
2023/10/31 00:43:48;;;;;;;9.30;4.83;;;;;;;10.03;100.00;99407.19;7392988;19;20403;-37
2023/10/31 00:46:18;;;;;;;12.73;5.73;;;;;;;10.04;100.00;99396.03;7368218;19;20419;-38
2023/10/31 00:48:50;;;;;;;8.20;5.33;;;;;;;10.02;100.00;99384.84;7391772;19;20475;-40
2023/10/31 00:51:20;;;;;;;8.77;5.40;;;;;;;10.03;100.00;99394.31;7367813;19;20596;-38
2023/10/31 00:53:50;;;;;;;9.07;5.03;;;;;;;10.03;100.00;99386.59;7394289;19;20407;-40
2023/10/31 00:56:19;;;;;;;8.73;5.10;;;;;;;10.05;100.00;99384.91;7368500;19;20949;-37
2023/10/31 00:58:49;;;;;;;9.80;4.90;;;;;;;10.05;100.00;99368.59;7391967;19;20407;-37
2023/10/31 01:01:18;;;;;;;11.03;4.73;;;;;;;10.03;100.00;99376.28;7367742;19;20459;-38
2023/10/31 01:03:50;;;;;;;10.40;5.20;;;;;;;10.04;100.00;99361.69;7391995;19;20435;-40
2023/10/31 01:06:20;;;;;;;13.13;5.30;;;;;;;10.00;100.00;99361.63;7368305;19;20461;-39
2023/10/31 01:08:50;;;;;;;10.43;4.50;;;;;;;10.04;100.00;99353.97;7394800;19;20470;-37
2023/10/31 01:11:19;;;;;;;8.93;5.47;;;;;;;10.00;100.00;99345.28;7372055;19;20917;-37
2023/10/31 01:13:49;;;;;;;9.80;4.90;;;;;;;10.01;100.00;99352.19;7398677;19;20425;-37
2023/10/31 01:16:19;;;;;;;7.23;4.50;;;;;;;10.00;100.00;99343.56;7375000;19;20502;-36
2023/10/31 01:18:51;;;;;;;11.53;5.30;;;;;;;10.04;100.00;99344.50;7397985;19;20407;-37
2023/10/31 01:21:21;;;;;;;9.70;5.83;;;;;;;10.00;100.00;99340.13;7373884;19;20475;-38
2023/10/31 01:23:51;;;;;;;10.87;5.13;;;;;;;10.01;100.00;99341.88;7401234;19;20792;-37
2023/10/31 01:26:20;;;;;;;8.73;5.13;;;;;;;10.04;100.00;99336.78;7374781;19;20435;-39
2023/10/31 01:28:50;;;;;;;7.67;4.70;;;;;;;10.03;100.00;99332.47;7400579;19;20406;-37
2023/10/31 01:31:19;;;;;;;15.13;6.00;;;;;;;10.02;100.00;99327.28;7374030;19;20551;-38
2023/10/31 01:33:51;;;;;;;10.73;5.80;;;;;;;10.02;100.00;99328.16;7400619;19;20417;-37
2023/10/31 01:36:21;;;;;;;16.77;5.70;;;;;;;9.99;100.00;99317.78;7376653;19;20432;-41
2023/10/31 01:38:51;;;;;;;8.40;5.30;;;;;;;10.02;100.00;99314.38;7398544;19;20475;-38
2023/10/31 01:41:20;;;;;;;14.47;6.37;;;;;;;10.04;100.00;99310.16;7372838;19;20465;-37
2023/10/31 01:43:50;;;;;;;11.73;5.37;;;;;;;10.02;100.00;99301.50;7399812;19;20488;-37
2023/10/31 01:46:20;;;;;;;9.70;6.00;;;;;;;10.04;100.00;99300.69;7374563;19;20435;-41
2023/10/31 01:48:52;;;;;;;12.37;6.73;;;;;;;10.01;100.00;99295.50;7396436;19;20775;-37
2023/10/31 01:51:21;;;;;;;12.20;6.20;;;;;;;10.03;100.00;99286.09;7373299;19;20462;-38
2023/10/31 01:53:51;;;;;;;11.73;6.47;;;;;;;10.00;100.00;99267.97;7397893;19;20403;-40
2023/10/31 01:56:21;;;;;;;11.80;7.07;;;;;;;9.99;100.00;99266.22;7374489;19;20958;-38
2023/10/31 01:58:52;;;;;;;18.53;7.20;;;;;;;10.00;100.00;99252.50;7399136;19;21029;-37
2023/10/31 02:01:22;;;;;;;13.00;7.07;;;;;;;10.02;100.00;99244.81;7371978;19;20458;-38
2023/10/31 02:03:56;;;;;;;17.60;7.27;;;;;;;10.03;100.00;99241.41;7397495;19;20392;-40
2023/10/31 02:06:26;;;;;;;14.43;7.10;;;;;;;10.04;100.00;99228.56;7372928;19;20490;-39
2023/10/31 02:08:55;;;;;;;14.93;9.03;;;;;;;9.98;100.00;99229.31;7399149;19;20851;-40
2023/10/31 02:11:25;;;;;;;18.13;9.67;;;;;;;9.99;100.00;99219.84;7370278;19;20426;-40
2023/10/31 02:13:54;;;;;;;19.33;10.17;;;;;;;9.99;100.00;99214.69;7394193;19;20395;-40
2023/10/31 02:16:25;;;;;;;16.00;9.00;;;;;;;10.01;100.00;99207.91;7371302;19;20411;-43
2023/10/31 02:18:57;;;;;;;17.73;9.70;;;;;;;9.99;100.00;99194.97;7393996;19;20403;-40
2023/10/31 02:21:28;;;;;;;15.33;9.70;;;;;;;9.99;100.00;99192.41;7372803;19;20805;-42
2023/10/31 02:24:01;;;;;;;19.80;10.50;;;;;;;10.02;100.00;99181.28;7399037;19;20580;-40
2023/10/31 02:26:31;;;;;;;15.20;9.47;;;;;;;10.05;100.00;99171.00;7369815;19;21679;-42
2023/10/31 02:29:02;;;;;;;20.47;11.30;;;;;;;10.07;100.00;99164.22;7398587;19;20440;-42
2023/10/31 02:31:32;;;;;;;16.30;10.43;;;;;;;10.08;100.00;99165.06;7371322;19;20467;-41
2023/10/31 02:34:02;;;;;;;20.90;10.57;;;;;;;10.03;100.00;99154.66;7395250;19;20838;-41
2023/10/31 02:36:33;;;;;;;15.43;9.57;;;;;;;10.04;100.00;99156.41;7372048;19;20486;-40
2023/10/31 02:39:06;;;;;;;18.00;11.00;;;;;;;10.07;100.00;99151.31;7396493;19;20424;-41
2023/10/31 02:41:36;;;;;;;17.53;10.17;;;;;;;10.06;100.00;99143.56;7371262;19;20880;-39
2023/10/31 02:44:06;;;;;;;18.27;9.90;;;;;;;10.02;100.00;99145.22;7395049;19;20403;-39
2023/10/31 02:46:35;;;;;;;17.17;9.73;;;;;;;10.02;100.00;99142.63;7372795;19;20431;-43
2023/10/31 02:49:05;;;;;;;16.00;9.77;;;;;;;10.02;100.00;99147.78;7394571;19;20431;-37
2023/10/31 02:51:34;;;;;;;15.37;9.07;;;;;;;10.00;100.00;99129.72;7371208;19;20558;-38
2023/10/31 02:54:08;;;;;;;15.50;9.50;;;;;;;10.04;100.00;99138.38;7394685;19;20410;-37
2023/10/31 02:56:37;;;;;;;15.27;9.47;;;;;;;10.07;100.00;99130.69;7373557;19;20809;-37
2023/10/31 02:59:07;;;;;;;14.97;9.30;;;;;;;10.08;100.00;99122.13;7396266;19;20474;-40
2023/10/31 03:01:37;;;;;;;15.03;9.83;;;;;;;10.04;100.00;99120.31;7365513;19;20427;-39
2023/10/31 03:04:08;;;;;;;15.40;9.50;;;;;;;10.05;100.00;99114.31;7392884;19;20398;-39
2023/10/31 03:06:37;;;;;;;13.43;9.03;;;;;;;10.02;100.00;99118.56;7371216;19;20785;-39
2023/10/31 03:09:10;;;;;;;16.13;10.03;;;;;;;10.01;100.00;99120.28;7393002;19;20769;-39
2023/10/31 03:11:39;;;;;;;20.60;10.77;;;;;;;10.03;100.00;99117.72;7369549;19;20442;-40
2023/10/31 03:14:09;;;;;;;16.87;9.93;;;;;;;10.04;100.00;99115.19;7393695;19;20500;-39
2023/10/31 03:16:38;;;;;;;18.03;11.63;;;;;;;10.03;100.00;99110.88;7370937;19;20985;-39
2023/10/31 03:19:09;;;;;;;20.10;10.47;;;;;;;10.04;100.00;99102.28;7395509;19;20395;-39
2023/10/31 03:21:39;;;;;;;15.23;9.60;;;;;;;10.03;100.00;99110.88;7370713;19;20439;-38
2023/10/31 03:24:11;;;;;;;16.23;10.50;;;;;;;10.04;100.00;99104.88;7393772;19;20429;-39
2023/10/31 03:26:41;;;;;;;17.57;9.70;;;;;;;10.03;100.00;99100.56;7370575;19;20430;-39
2023/10/31 03:29:10;;;;;;;24.20;11.53;;;;;;;10.05;100.00;99093.72;7394439;19;20831;-41
2023/10/31 03:31:40;;;;;;;20.57;11.37;;;;;;;10.06;100.00;99087.72;7368184;19;20494;-39
2023/10/31 03:34:09;;;;;;;17.37;10.03;;;;;;;10.06;100.00;99085.13;7393657;19;20407;-42
2023/10/31 03:36:39;;;;;;;18.03;9.77;;;;;;;10.03;100.00;99081.66;7370401;19;21002;-40
2023/10/31 03:39:11;;;;;;;18.50;9.30;;;;;;;10.06;100.00;99079.97;7392738;19;21026;-39
2023/10/31 03:41:38;;;;;;;18.60;10.47;;;;;;;10.08;100.00;99080.91;7370042;19;21110;-38
2023/10/31 03:44:08;;;;;;;15.80;9.97;;;;;;;10.09;100.00;99077.47;7393726;19;20412;-39
2023/10/31 03:46:38;;;;;;;17.70;10.43;;;;;;;10.07;100.00;99074.00;7370237;19;20808;-38
2023/10/31 03:49:08;;;;;;;15.83;9.17;;;;;;;10.07;100.00;99073.13;7392520;19;20411;-39
2023/10/31 03:51:38;;;;;;;19.00;11.00;;;;;;;10.07;100.00;99066.28;7370181;19;20431;-38
2023/10/31 03:54:07;;;;;;;13.20;8.97;;;;;;;10.09;100.00;99064.59;7393232;19;20415;-40
2023/10/31 03:56:44;;;;;;;14.80;10.20;;;;;;;10.13;100.00;99055.19;7369757;19;20439;-40
2023/10/31 03:59:14;;;;;;;17.47;10.37;;;;;;;10.10;100.00;99050.84;7393082;19;20411;-39
2023/10/31 04:01:43;;;;;;;16.00;9.80;;;;;;;10.13;100.00;99050.03;7367296;19;20459;-39
2023/10/31 04:04:13;;;;;;;16.40;10.93;;;;;;;10.12;100.00;99041.44;7392790;19;20400;-39
2023/10/31 04:06:43;;;;;;;15.70;9.47;;;;;;;10.11;100.00;99044.00;7369298;19;20439;-40
2023/10/31 04:09:13;;;;;;;15.90;10.10;;;;;;;10.12;100.00;99031.13;7393789;19;20407;-39
2023/10/31 04:11:45;;;;;;;15.83;9.70;;;;;;;10.13;100.00;99020.00;7366191;19;20480;-39
2023/10/31 04:14:15;;;;;;;14.40;9.70;;;;;;;10.14;100.00;99018.28;7392708;19;20483;-41
2023/10/31 04:16:45;;;;;;;16.90;11.13;;;;;;;10.17;100.00;99005.44;7368766;19;20958;-39
2023/10/31 04:19:15;;;;;;;15.43;10.23;;;;;;;10.17;100.00;99002.00;7388773;19;20408;-40
2023/10/31 04:21:45;;;;;;;21.70;10.80;;;;;;;10.16;100.00;98990.84;7366101;19;20447;-41
2023/10/31 04:24:15;;;;;;;14.70;10.07;;;;;;;10.17;100.00;98965.91;7390804;19;20407;-39
2023/10/31 04:26:47;;;;;;;14.40;9.30;;;;;;;10.18;100.00;98953.06;7364371;19;20963;-39
2023/10/31 04:29:16;;;;;;;20.60;10.50;;;;;;;10.19;100.00;98928.13;7392484;19;20408;-39
2023/10/31 04:31:46;;;;;;;14.13;9.07;;;;;;;10.20;100.00;98922.16;7366900;19;20463;-40
2023/10/31 04:34:16;;;;;;;16.50;10.67;;;;;;;10.20;100.00;98904.97;7393504;19;20554;-40
2023/10/31 04:36:45;;;;;;;16.33;10.30;;;;;;;10.22;100.00;98897.25;7368178;19;20426;-40
2023/10/31 04:39:15;;;;;;;19.63;11.07;;;;;;;10.26;100.00;98879.28;7390887;19;20404;-40
2023/10/31 04:41:47;;;;;;;15.03;9.27;;;;;;;10.23;100.00;98868.06;7367355;19;20459;-41
2023/10/31 04:44:17;;;;;;;16.33;8.87;;;;;;;10.22;100.00;98867.22;7398234;19;20412;-40
2023/10/31 04:46:47;;;;;;;15.20;9.60;;;;;;;10.22;100.00;98859.47;7375518;19;20427;-39
2023/10/31 04:49:17;;;;;;;18.73;9.50;;;;;;;10.25;100.00;98844.03;7397770;19;20424;-39
2023/10/31 04:51:47;;;;;;;12.93;8.13;;;;;;;10.27;100.00;98854.38;7373365;19;20546;-39
2023/10/31 04:54:16;;;;;;;14.67;9.17;;;;;;;10.29;100.00;98826.91;7397852;19;20423;-41
2023/10/31 04:56:49;;;;;;;14.57;8.30;;;;;;;10.29;100.00;98826.06;7375380;19;20807;-39
2023/10/31 04:59:19;;;;;;;15.60;9.33;;;;;;;10.32;100.00;98823.50;7398992;19;20425;-41
2023/10/31 05:01:52;;;;;;;14.27;8.90;;;;;;;10.34;100.00;98814.94;7372525;19;20455;-39
2023/10/31 05:04:22;;;;;;;14.97;8.70;;;;;;;10.33;100.00;98807.19;7398289;19;20486;-39
2023/10/31 05:06:51;;;;;;;18.53;8.90;;;;;;;10.37;100.00;98804.66;7375419;19;20803;-41
2023/10/31 05:09:21;;;;;;;15.83;8.93;;;;;;;10.37;100.00;98798.66;7397475;19;20411;-39
2023/10/31 05:11:53;;;;;;;14.27;8.80;;;;;;;10.37;100.00;98793.50;7371053;19;21026;-41
2023/10/31 05:14:23;;;;;;;15.37;7.57;;;;;;;10.38;100.00;98784.91;7398237;19;20463;-39
2023/10/31 05:16:53;;;;;;;15.87;8.60;;;;;;;10.39;100.00;98776.31;7375047;19;20991;-39
2023/10/31 05:19:22;;;;;;;15.00;7.30;;;;;;;10.38;100.00;98778.03;7397420;19;20395;-39
2023/10/31 05:21:52;;;;;;;13.40;7.13;;;;;;;10.40;100.00;98766.03;7372383;19;20923;-40
2023/10/31 05:24:22;;;;;;;11.83;7.63;;;;;;;10.43;100.00;98766.94;7400669;19;20417;-41
2023/10/31 05:26:54;;;;;;;13.23;7.57;;;;;;;10.44;100.00;98758.34;7376359;19;20470;-39
2023/10/31 05:29:24;;;;;;;13.73;8.10;;;;;;;10.45;100.00;98757.53;7397203;19;20406;-39
2023/10/31 05:31:53;;;;;;;17.70;8.70;;;;;;;10.44;100.00;98768.66;7372253;19;20466;-39
2023/10/31 05:34:23;;;;;;;15.53;7.27;;;;;;;10.45;100.00;98775.56;7399400;19;20407;-39
2023/10/31 05:36:52;;;;;;;12.60;7.17;;;;;;;10.44;100.00;98774.69;7376589;19;20434;-40
2023/10/31 05:39:22;;;;;;;14.63;8.40;;;;;;;10.46;100.00;98772.97;7398450;19;20475;-41
2023/10/31 05:41:54;;;;;;;17.70;9.07;;;;;;;10.46;100.00;98779.88;7372969;19;20458;-41
2023/10/31 05:44:23;;;;;;;12.87;7.57;;;;;;;10.47;100.00;98768.69;7397037;19;20403;-42
2023/10/31 05:46:53;;;;;;;14.57;8.10;;;;;;;10.45;100.00;98758.38;7375839;19;20430;-40
2023/10/31 05:49:23;;;;;;;12.30;7.53;;;;;;;10.46;100.00;98751.50;7396937;19;20411;-41
2023/10/31 05:51:53;;;;;;;16.40;9.13;;;;;;;10.48;100.00;98742.06;7373490;19;20547;-40
2023/10/31 05:54:24;;;;;;;15.80;8.17;;;;;;;10.47;100.00;98745.50;7395080;19;20399;-41
2023/10/31 05:56:56;;;;;;;16.87;8.57;;;;;;;10.47;100.00;98738.59;7375555;19;20427;-41
2023/10/31 05:59:26;;;;;;;16.40;8.03;;;;;;;10.47;100.00;98730.88;7396646;19;20418;-41
2023/10/31 06:01:56;;;;;;;14.43;7.97;;;;;;;10.49;100.00;98731.78;7373170;19;20463;-41
2023/10/31 06:04:26;;;;;;;14.90;8.27;;;;;;;10.49;100.00;98736.06;7398906;19;20404;-42
2023/10/31 06:06:55;;;;;;;16.70;9.27;;;;;;;10.47;100.00;98748.91;7375642;19;20423;-42
2023/10/31 06:09:25;;;;;;;19.27;8.97;;;;;;;10.49;100.00;98738.63;7395981;19;20403;-41
2023/10/31 06:11:57;;;;;;;17.13;8.80;;;;;;;10.47;100.00;98745.50;7371544;19;20461;-40
2023/10/31 06:14:27;;;;;;;19.10;8.90;;;;;;;10.49;100.00;98746.38;7396838;19;20416;-41
2023/10/31 06:16:59;;;;;;;15.53;9.03;;;;;;;10.49;100.00;98746.38;7375316;19;20439;-41
2023/10/31 06:19:28;;;;;;;17.43;8.80;;;;;;;10.49;100.00;98751.53;7395694;19;20406;-41
2023/10/31 06:21:58;;;;;;;18.90;9.67;;;;;;;10.48;100.00;98754.97;7372096;19;20455;-42
2023/10/31 06:24:27;;;;;;;17.47;9.73;;;;;;;10.48;100.00;98750.69;7395858;19;20426;-41
2023/10/31 06:27:00;;;;;;;17.07;8.90;;;;;;;10.48;100.00;98754.97;7375130;19;20434;-42
2023/10/31 06:29:29;;;;;;;19.20;8.93;;;;;;;10.49;100.00;98756.69;7395740;19;20950;-41
2023/10/31 06:32:19;;;;;;;19.80;9.40;;;;;;;10.50;100.00;98754.13;7374657;19;20438;-42
2023/10/31 06:34:48;;;;;;;19.87;9.37;;;;;;;10.50;100.00;98753.25;7374390;19;20475;-42
2023/10/31 06:37:18;;;;;;;19.87;10.03;;;;;;;10.48;100.00;98761.00;7396389;19;20407;-43
2023/10/31 06:39:48;;;;;;;16.93;9.80;;;;;;;10.50;100.00;98755.81;7372592;19;20416;-42
2023/10/31 06:42:20;;;;;;;19.30;9.83;;;;;;;10.52;100.00;98761.88;7394051;19;20407;-41
2023/10/31 06:44:49;;;;;;;17.90;9.23;;;;;;;10.55;100.00;98761.06;7376114;19;20463;-39
2023/10/31 06:47:19;;;;;;;18.60;9.87;;;;;;;10.52;100.00;98760.16;7396056;19;20421;-41
2023/10/31 06:49:48;;;;;;;19.20;9.67;;;;;;;10.53;100.00;98790.25;7373114;19;20407;-41
2023/10/31 06:52:18;;;;;;;20.33;10.07;;;;;;;10.53;100.00;98773.91;7395531;19;21306;-41
2023/10/31 06:54:48;;;;;;;20.03;9.80;;;;;;;10.54;100.00;98765.34;7372995;19;20408;-40
2023/10/31 06:57:20;;;;;;;20.40;9.37;;;;;;;10.52;100.00;98767.88;7393138;19;20411;-43
2023/10/31 06:59:49;;;;;;;20.60;10.03;;;;;;;10.54;100.00;98760.19;7372283;19;20408;-40
2023/10/31 07:02:19;;;;;;;19.43;9.10;;;;;;;10.56;100.00;98762.78;7395717;19;20983;-40
2023/10/31 07:04:49;;;;;;;20.47;10.63;;;;;;;10.57;100.00;98765.38;7372944;19;20767;-41
2023/10/31 07:07:19;;;;;;;22.13;10.27;;;;;;;10.59;100.00;98762.78;7393751;19;20758;-41
2023/10/31 07:09:48;;;;;;;20.67;10.20;;;;;;;10.59;100.00;98761.09;7370216;19;20411;-42
2023/10/31 07:12:20;;;;;;;23.47;10.90;;;;;;;10.56;100.00;98758.47;7393431;19;21006;-42
2023/10/31 07:14:50;;;;;;;19.87;10.17;;;;;;;10.59;100.00;98771.41;7373337;19;20408;-40
2023/10/31 07:17:19;;;;;;;21.63;11.87;;;;;;;10.59;100.00;98775.69;7393085;19;20407;-41
2023/10/31 07:19:49;;;;;;;17.40;8.80;;;;;;;10.57;100.00;98779.97;7371942;19;20403;-41
2023/10/31 07:22:19;;;;;;;18.07;8.60;;;;;;;10.55;100.00;98777.38;7393887;19;20411;-41
2023/10/31 07:24:48;;;;;;;17.80;9.93;;;;;;;10.54;100.00;98780.81;7372438;19;21058;-41
2023/10/31 07:27:20;;;;;;;15.27;8.00;;;;;;;10.56;100.00;98773.94;7393260;19;20424;-41
2023/10/31 07:29:50;;;;;;;13.90;6.97;;;;;;;10.60;100.00;98775.72;7369841;19;20475;-39
2023/10/31 07:32:20;;;;;;;12.70;6.23;;;;;;;10.59;100.00;98783.41;7393256;19;20943;-38
2023/10/31 07:34:49;;;;;;;15.00;8.47;;;;;;;10.59;100.00;98773.97;7373431;19;20766;-40
2023/10/31 07:37:19;;;;;;;14.60;7.60;;;;;;;10.58;100.00;98771.38;7392772;19;20416;-40
2023/10/31 07:39:50;;;;;;;13.83;6.63;;;;;;;10.58;100.00;98769.69;7371114;19;20499;-41
2023/10/31 07:42:22;;;;;;;9.07;5.90;;;;;;;10.59;100.00;98763.66;7378795;19;20960;-40
2023/10/31 07:44:52;;;;;;;14.07;6.87;;;;;;;10.58;100.00;98792.88;7361835;19;20499;-40
2023/10/31 07:47:21;;;;;;;10.27;4.80;;;;;;;10.58;100.00;98761.94;7383593;19;20403;-41
2023/10/31 07:49:53;;;;;;;11.90;6.13;;;;;;;10.59;100.00;98747.31;7364033;19;20426;-41
2023/10/31 07:52:23;;;;;;;10.53;5.50;;;;;;;10.55;100.00;98689.69;7387736;19;20432;-41
2023/10/31 07:54:52;;;;;;;7.60;4.33;;;;;;;10.57;100.00;98698.34;7363068;19;20408;-40
2023/10/31 07:57:24;;;;;;;8.73;4.20;;;;;;;10.56;100.00;98696.56;7383189;19;20407;-40
2023/10/31 07:59:54;;;;;;;8.33;5.40;;;;;;;10.54;100.00;98703.44;7361648;19;20427;-41
2023/10/31 08:02:23;;;;;;;14.60;7.33;;;;;;;10.53;100.00;98706.88;7383950;19;20784;-41
2023/10/31 08:04:53;;;;;;;17.50;6.57;;;;;;;10.50;100.00;98706.84;7362857;19;20403;-41
2023/10/31 08:07:23;;;;;;;13.10;7.27;;;;;;;10.49;100.00;98713.72;7382424;19;20404;-41
2023/10/31 08:09:53;;;;;;;12.93;6.90;;;;;;;10.36;100.00;98725.59;7359608;19;20426;-40
2023/10/31 08:12:25;;;;;;;5.83;3.30;;;;;;;10.04;100.00;98728.69;7382108;19;20411;-43
2023/10/31 08:14:54;;;;;;;7.30;3.27;;;;;;;9.93;100.00;98735.41;7362268;19;20404;-40
2023/10/31 08:17:24;;;;;;;5.00;2.10;;;;;;;9.69;100.00;98752.31;7380848;19;20470;-41
2023/10/31 08:19:54;;;;;;;3.97;2.33;;;;;;;9.63;100.00;98772.84;7362580;19;20482;-39
2023/10/31 08:22:23;;;;;;;2.30;1.33;;;;;;;9.56;100.00;98788.19;7383717;19;20478;-40
2023/10/31 08:24:53;;;;;;;3.70;1.30;;;;;;;9.48;100.00;98810.38;7360304;19;21117;-40
2023/10/31 08:27:25;;;;;;;3.07;1.77;;;;;;;9.51;100.00;98832.72;7382042;19;20410;-40
2023/10/31 08:29:55;;;;;;;3.27;1.60;;;;;;;9.51;100.00;98855.88;7360858;19;20415;-40
2023/10/31 08:32:24;;;;;;;2.00;1.07;;;;;;;9.49;100.00;98904.75;7384438;19;20838;-40
2023/10/31 08:34:56;;;;;;;3.40;1.80;;;;;;;9.50;100.00;99001.78;7360296;19;20419;-40
2023/10/31 08:37:25;;;;;;;8.60;4.07;;;;;;;9.50;100.00;99032.66;7382638;19;20400;-40
2023/10/31 08:39:55;;;;;;;4.40;2.13;;;;;;;9.49;100.00;99059.22;7360347;19;20449;-39
2023/10/31 08:42:27;;;;;;;3.53;2.40;;;;;;;9.35;100.00;99068.41;7384679;19;20413;-40
2023/10/31 08:44:57;;;;;;;7.83;4.60;;;;;;;9.34;100.00;99085.56;7362968;19;21891;-41
2023/10/31 08:47:28;;;;;;;6.13;3.40;;;;;;;9.37;100.00;99100.19;7382623;19;20422;-41
2023/10/31 08:49:57;;;;;;;6.90;3.93;;;;;;;9.31;100.00;99106.97;7360044;19;20421;-40
2023/10/31 08:52:27;;;;;;;8.80;5.17;;;;;;;9.35;100.00;99107.00;7381898;19;20945;-41
2023/10/31 08:54:56;;;;;;;5.40;3.30;;;;;;;9.29;100.00;99118.06;7360134;19;20958;-40
2023/10/31 08:57:29;;;;;;;5.87;2.93;;;;;;;9.35;100.00;99122.44;7382017;19;20403;-41
2023/10/31 08:59:58;;;;;;;18.20;7.73;;;;;;;9.39;100.00;99125.13;7360121;19;20412;-41
2023/10/31 09:02:28;;;;;;;14.87;6.83;;;;;;;9.52;100.00;99121.09;7382017;19;20415;-41
2023/10/31 09:04:58;;;;;;;14.07;7.57;;;;;;;9.44;100.00;99118.34;7359794;19;20974;-41
2023/10/31 09:07:27;;;;;;;8.27;5.17;;;;;;;9.42;100.00;99117.47;7381769;19;21026;-39
2023/10/31 09:09:57;;;;;;;7.60;5.00;;;;;;;9.48;100.00;99124.44;7358224;19;20522;-39
2023/10/31 09:12:29;;;;;;;7.10;4.30;;;;;;;9.50;100.00;99117.63;7381396;19;20935;-40
2023/10/31 09:15:02;;;;;;;14.77;7.53;;;;;;;9.47;100.00;99125.28;7359852;19;20430;-40
2023/10/31 09:17:32;;;;;;;5.80;3.67;;;;;;;9.48;100.00;99128.72;7381787;19;20968;-42
2023/10/31 09:20:02;;;;;;;6.63;4.70;;;;;;;9.48;100.00;99127.00;7360006;19;20459;-41
2023/10/31 09:22:32;;;;;;;6.47;3.70;;;;;;;9.49;100.00;99133.88;7383930;19;20432;-40
2023/10/31 09:25:02;;;;;;;5.37;3.40;;;;;;;9.48;100.00;99139.03;7362570;19;20395;-38
2023/10/31 09:27:34;;;;;;;9.90;5.40;;;;;;;9.52;100.00;99141.69;7383436;19;20449;-41
2023/10/31 09:30:04;;;;;;;4.10;2.47;;;;;;;9.52;100.00;99141.69;7368139;19;21117;-38
2023/10/31 09:32:34;;;;;;;13.50;5.27;;;;;;;9.64;100.00;99153.09;7392095;19;20498;-39
2023/10/31 09:35:03;;;;;;;4.07;2.17;;;;;;;9.61;100.00;99148.72;7370326;19;20778;-39
2023/10/31 09:37:33;;;;;;;9.30;3.97;;;;;;;9.61;100.00;99151.31;7390308;19;20491;-37
2023/10/31 09:40:03;;;;;;;16.03;7.73;;;;;;;9.56;100.00;99151.22;7368571;19;20534;-40
2023/10/31 09:42:35;;;;;;;13.57;5.77;;;;;;;9.57;100.00;99158.09;7389931;19;20761;-41
2023/10/31 09:45:05;;;;;;;3.27;1.90;;;;;;;9.43;100.00;99170.69;7369191;19;20419;-38
2023/10/31 09:47:35;;;;;;;2.83;1.53;;;;;;;9.42;100.00;99174.09;7392668;19;20395;-38
2023/10/31 09:50:05;;;;;;;1.90;0.80;;;;;;;9.24;100.00;99192.59;7368402;19;20835;-38
2023/10/31 09:52:35;;;;;;;4.73;2.30;;;;;;;9.08;100.00;99193.94;7390493;19;20414;-38
2023/10/31 09:55:05;;;;;;;6.40;2.80;;;;;;;9.00;100.00;99216.94;7369201;19;20416;-38
2023/10/31 09:57:37;;;;;;;6.17;2.40;;;;;;;8.93;100.00;99245.91;7389906;19;20408;-38
2023/10/31 10:00:08;;;;;;;61.30;26.10;;;;;;;8.82;100.00;99271.34;7368698;19;20469;-38
2023/10/31 10:02:38;;;;;;;1.37;0.50;;;;;;;8.66;100.00;99294.97;7389267;19;20407;-40
2023/10/31 10:05:08;;;;;;;9.90;3.83;;;;;;;8.62;100.00;99330.84;7368864;19;20848;-38
2023/10/31 10:07:38;;;;;;;7.73;2.10;;;;;;;8.62;100.00;99342.84;7390934;19;20420;-38
2023/10/31 10:10:08;;;;;;;3.20;0.50;;;;;;;8.49;100.00;99352.78;7366155;19;20447;-38
2023/10/31 10:12:41;;;;;;;6.17;2.97;;;;;;;8.40;100.00;99370.50;7392257;19;20413;-38
2023/10/31 10:15:10;;;;;;;3.73;1.03;;;;;;;8.41;100.00;99397.06;7368168;19;20407;-37
2023/10/31 10:17:40;;;;;;;14.57;5.70;;;;;;;8.37;100.00;99396.13;7388898;19;20411;-38
2023/10/31 10:20:12;;;;;;;10.00;4.67;;;;;;;8.37;100.00;99406.41;7368374;19;20534;-38
2023/10/31 10:22:43;;;;;;;7.00;2.73;;;;;;;8.37;100.00;99432.09;7397019;19;20411;-39
2023/10/31 10:25:15;;;;;;;8.40;3.40;;;;;;;8.33;100.00;99436.28;7373318;19;20411;-39
2023/10/31 10:27:48;;;;;;;2.40;1.57;;;;;;;8.37;100.00;99442.38;7396087;19;20840;-38
2023/10/31 10:30:18;;;;;;;3.40;1.50;;;;;;;8.36;100.00;99458.63;7373778;19;20470;-41
2023/10/31 10:32:47;;;;;;;5.00;1.47;;;;;;;8.33;100.00;99468.81;7397432;19;20424;-38
2023/10/31 10:35:17;;;;;;;2.27;0.80;;;;;;;8.37;100.00;99480.94;7373877;19;20983;-38
2023/10/31 10:37:49;;;;;;;8.53;3.83;;;;;;;8.30;100.00;99476.44;7395119;19;20947;-38
2023/10/31 10:40:21;;;;;;;3.20;1.23;;;;;;;8.28;100.00;99493.47;7372097;19;20487;-41
2023/10/31 10:42:57;;;;;;;3.60;1.30;;;;;;;8.30;100.00;99502.13;7395909;19;20580;-37
2023/10/31 10:45:28;;;;;;;10.30;3.50;;;;;;;8.29;100.00;99508.97;7374205;19;20517;-39
2023/10/31 10:48:00;;;;;;;9.17;2.57;;;;;;;8.36;100.00;99510.88;7395622;19;20408;-40
2023/10/31 10:50:30;;;;;;;20.10;8.03;;;;;;;8.43;100.00;99519.69;7370620;19;20494;-38
2023/10/31 10:53:07;;;;;;;1.63;0.60;;;;;;;8.43;100.00;99540.25;7395422;19;20438;-39
2023/10/31 10:55:42;;;;;;;1.40;0.70;;;;;;;8.45;100.00;99529.97;7373711;19;20427;-37
2023/10/31 10:58:19;;;;;;;9.80;4.83;;;;;;;8.42;100.00;99538.50;7395172;19;20407;-40
2023/10/31 11:00:49;;;;;;;9.13;3.87;;;;;;;8.40;100.00;99546.97;7373531;19;20522;-38
2023/10/31 11:03:19;;;;;;;2.93;0.90;;;;;;;8.34;100.00;99552.78;7395902;19;20427;-38
2023/10/31 11:05:49;;;;;;;6.50;1.93;;;;;;;8.32;100.00;99552.72;7374792;19;21034;-39
2023/10/31 11:08:19;;;;;;;6.07;2.40;;;;;;;8.32;100.00;99560.44;7395001;19;20503;-38
2023/10/31 11:10:49;;;;;;;5.50;2.57;;;;;;;8.27;100.00;99563.69;7372290;19;20467;-39
2023/10/31 11:13:22;;;;;;;4.57;0.80;;;;;;;8.29;100.00;99557.78;7395869;19;20398;-39
2023/10/31 11:15:54;;;;;;;5.93;2.60;;;;;;;8.23;100.00;99555.91;7375904;19;21005;-40
2023/10/31 11:18:24;;;;;;;7.93;4.00;;;;;;;8.21;100.00;99560.09;7395573;19;20850;-40
2023/10/31 11:20:54;;;;;;;18.40;7.07;;;;;;;8.23;100.00;99571.31;7372426;19;20522;-39
2023/10/31 11:23:24;;;;;;;13.07;5.97;;;;;;;8.15;100.00;99574.47;7397135;19;20491;-39
2023/10/31 11:25:54;;;;;;;11.23;4.33;;;;;;;8.07;100.00;99574.22;7375801;19;20424;-40
2023/10/31 11:28:27;;;;;;;2.20;1.10;;;;;;;8.09;100.00;99569.97;7397249;19;20487;-39
2023/10/31 11:31:00;;;;;;;4.77;1.30;;;;;;;8.07;100.00;99587.06;7374607;19;20463;-38
2023/10/31 11:33:30;;;;;;;8.50;3.10;;;;;;;8.00;100.00;99585.97;7398557;19;20414;-39
2023/10/31 11:36:03;;;;;;;50.13;20.57;;;;;;;8.04;100.00;99602.34;7374834;19;20419;-39